TimeCST,TemperatureF,Dew PointF,Humidity,Sea Level PressureIn,VisibilityMPH,Wind Direction,Wind SpeedMPH,Gust SpeedMPH,PrecipitationIn,Events,Conditions,WindDirDegrees,DateUTC
12:54 AM,62.1,48.0,60,30.12,10.0,SSE,13.8,-,N/A,,Clear,160,2013-11-06 06:54:00
1:54 AM,61.0,46.9,60,30.11,10.0,South,10.4,19.6,N/A,,Partly Cloudy,170,2013-11-06 07:54:00
2:54 AM,60.1,46.0,60,30.09,10.0,South,12.7,-,N/A,,Scattered Clouds,170,2013-11-06 08:54:00
3:54 AM,60.1,45.0,57,30.09,10.0,SSE,13.8,-,N/A,,Partly Cloudy,160,2013-11-06 09:54:00
4:54 AM,57.9,46.0,65,30.09,10.0,South,11.5,-,N/A,,Scattered Clouds,170,2013-11-06 10:54:00
5:54 AM,59.0,46.0,62,30.08,10.0,SSE,15.0,21.9,N/A,,Mostly Cloudy,160,2013-11-06 11:54:00
6:54 AM,60.1,48.0,64,30.08,10.0,South,15.0,-,N/A,,Overcast,170,2013-11-06 12:54:00
7:54 AM,61.0,48.9,64,30.09,10.0,South,17.3,-,N/A,,Overcast,190,2013-11-06 13:54:00
8:54 AM,61.0,50.0,67,30.11,10.0,South,13.8,-,N/A,,Overcast,180,2013-11-06 14:54:00
9:54 AM,62.1,52.0,70,30.09,10.0,South,11.5,20.7,0.00,,Overcast,170,2013-11-06 15:54:00
10:54 AM,61.0,55.0,81,30.09,5.0,South,11.5,-,0.01,Rain,Light Rain,180,2013-11-06 16:54:00
11:04 AM,60.8,55.4,82,30.09,9.0,SSE,10.4,-,0.00,,Overcast,160,2013-11-06 17:04:00
11:54 AM,61.0,57.0,87,30.06,10.0,South,11.5,-,0.02,,Overcast,180,2013-11-06 17:54:00
12:08 PM,60.8,57.2,88,30.07,3.0,South,9.2,19.6,0.01,Rain,Rain,190,2013-11-06 18:08:00
12:54 PM,62.1,59.0,90,30.04,4.0,SSW,6.9,-,0.03,Rain,Light Rain,200,2013-11-06 18:54:00
1:21 PM,62.6,59.0,88,30.05,5.0,South,5.8,-,0.00,Rain,Light Rain,190,2013-11-06 19:21:00
1:47 PM,62.6,59.0,88,30.05,4.0,SSW,5.8,-,0.00,,Overcast,210,2013-11-06 19:47:00
1:54 PM,62.1,59.0,90,30.05,3.0,SSW,5.8,-,0.02,Rain,Rain,210,2013-11-06 19:54:00
1:56 PM,62.6,59.0,88,30.05,2.0,SSW,5.8,-,0.01,Rain,Rain,200,2013-11-06 19:56:00
2:54 PM,62.1,60.1,93,30.05,2.0,SSW,4.6,-,0.11,,Overcast,200,2013-11-06 20:54:00
3:54 PM,62.1,60.1,93,30.06,2.0,Calm,Calm,-,0.01,Rain,Light Rain,0,2013-11-06 21:54:00
4:26 PM,62.6,60.8,94,30.05,6.0,South,3.5,-,0.01,Rain,Light Rain,190,2013-11-06 22:26:00
4:54 PM,62.1,60.1,93,30.07,6.0,Calm,Calm,-,0.02,Rain,Light Rain,0,2013-11-06 22:54:00
5:03 PM,62.6,60.8,94,30.07,6.0,Calm,Calm,-,0.00,Rain,Light Rain,0,2013-11-06 23:03:00
5:54 PM,57.0,55.0,93,30.10,8.0,NNW,9.2,-,0.03,Rain,Light Rain,340,2013-11-06 23:54:00
6:54 PM,54.0,51.1,90,30.14,10.0,NNW,12.7,21.9,0.01,Rain,Light Rain,340,2013-11-07 00:54:00
7:54 PM,51.1,48.0,89,30.17,10.0,NNW,12.7,21.9,0.03,Rain,Light Rain,340,2013-11-07 01:54:00
8:54 PM,50.0,46.9,89,30.19,8.0,North,13.8,20.7,0.00,,Overcast,350,2013-11-07 02:54:00
9:14 PM,48.2,46.4,93,30.20,10.0,NNW,12.7,20.7,N/A,,Overcast,340,2013-11-07 03:14:00
9:24 PM,48.2,44.6,87,30.21,10.0,NNW,11.5,-,N/A,,Overcast,340,2013-11-07 03:24:00
9:54 PM,48.0,44.1,86,30.23,10.0,North,12.7,20.7,N/A,,Overcast,350,2013-11-07 03:54:00
10:23 PM,46.4,42.8,87,30.23,10.0,North,11.5,23.0,N/A,,Overcast,10,2013-11-07 04:23:00
10:54 PM,46.9,39.9,77,30.24,10.0,North,12.7,23.0,N/A,,Overcast,360,2013-11-07 04:54:00
11:54 PM,46.9,39.0,74,30.26,10.0,North,17.3,24.2,N/A,,Overcast,360,2013-11-07 05:54:00